Vandenberg Air Force Base Lompoc US
ICAO: KVBG
IATA: VBG
Category: Large
Scheduled Services: No

Elevation: 369 ft
TransAlt. 18000 ft.

Airport Communications:
SANTA BARB APP/DEP:124.15
COMD POST:31.1
ATIS:133.125
CTAF:124.95
GND/CLNC DEL:121.75
RANGE CON:121.4
PMSV METRO:34.24
PTD:126.2
TWR:124.95

KVBG Zoom In..

Runways:

(A) RW 12 length 15000 ft width 200 ft
ILS 110.10 / hdg 122

(B) RW 30 length 15000 ft width 200 ft
ILS 110.10 / hdg 302

Location; KVBG
Day. 25 / Time. 09.55 Zulu
* Altimeter: 30.06
* Temperature: 10° c. 50°f.
* Wind from: 320° Speed 04 kn.
Dewpoint: 09° c.
Visibility: 3 Statute Miles.
Clouds: Few 100 ft.
Clouds: Overcast 300 ft.
Conditions: Mist.

KVBG 250955Z 32004KT 3SM BR FEW001 OVC003 10/09 A3006 RMK AO2A SLP179 T01000094


Wind From 320°
Speed 04 kn.

  YouTube Music Video
 
jpsmedia.com for Web Design  worldairports.se 2018   terms of use